Time;durP1;ratioP1;P1;durP2;ratioP2;P2;SDS_P1;SDS_P2;PMS_P1;PMS_P2;Temp;Humidity;BMP_temperature;BMP_pressure;BME280_temperature;BME280_humidity;BME280_pressure;Samples;Min_cycle;Max_cycle;Signal;HPM_P1;HPM_P2
2022/09/12 00:00:47;;;;;;;0.00;0.00;;;21.00;99.90;;;21.67;58.40;101326.78;4929250;28;97708;-53
2022/09/12 00:03:13;;;;;;;0.17;0.17;;;21.00;99.90;;;21.65;58.44;101328.72;4925867;28;97270;-52
2022/09/12 00:05:46;;;;;;;0.20;0.20;;;21.00;99.90;;;21.68;58.47;101317.75;4928537;28;101001;-51
2022/09/12 00:08:13;;;;;;;0.47;0.23;;;21.10;99.90;;;21.67;58.09;101325.94;4930038;28;97644;-52
2022/09/12 00:10:41;;;;;;;0.20;0.17;;;21.00;99.90;;;21.64;58.51;101327.00;4927334;28;97938;-51
2022/09/12 00:13:08;;;;;;;0.00;0.00;;;21.00;99.90;;;21.66;58.71;101325.06;4930043;28;98155;-55
2022/09/12 00:15:42;;;;;;;1.07;0.40;;;21.00;99.90;;;21.70;58.18;101320.38;4921837;28;99995;-54
2022/09/12 00:18:13;;;;;;;1.10;0.50;;;21.10;99.90;;;21.61;57.46;101316.50;4922382;28;97599;-49
2022/09/12 00:20:46;;;;;;;0.10;0.10;;;21.00;99.90;;;21.50;58.77;101318.22;4937566;28;97506;-49
2022/09/12 00:23:13;;;;;;;0.13;0.13;;;20.80;99.90;;;21.49;59.03;101316.50;4923427;28;99131;-54
2022/09/12 00:25:44;;;;;;;1.07;0.50;;;20.80;99.90;;;21.44;58.47;101314.16;4920790;28;99221;-52
2022/09/12 00:28:11;;;;;;;0.10;0.10;;;20.70;99.90;;;21.37;59.35;101308.34;4930603;28;99198;-49
2022/09/12 00:30:48;;;;;;;0.10;0.10;;;20.60;99.90;;;21.42;59.42;101308.03;4943645;28;97695;-52
2022/09/12 00:33:17;;;;;;;0.27;0.27;;;20.70;99.90;;;21.44;59.06;101308.78;4952738;28;97552;-51
2022/09/12 00:35:51;;;;;;;0.00;0.00;;;20.80;99.90;;;21.49;59.01;101303.94;4948153;28;101733;-52
2022/09/12 00:38:18;;;;;;;0.20;0.17;;;20.90;99.90;;;21.51;58.82;101303.84;4949429;28;97298;-49
2022/09/12 00:40:45;;;;;;;0.10;0.10;;;20.90;99.90;;;21.53;58.77;101308.13;4953496;28;97242;-54
2022/09/12 00:43:38;;;;;;;0.60;0.40;;;20.90;99.90;;;21.60;58.76;101298.69;4949109;28;98566;-50
2022/09/12 00:46:24;;;;;;;0.93;0.60;;;21.00;99.90;;;21.68;58.43;101301.66;4939326;28;102480;-52
2022/09/12 00:49:25;;;;;;;0.00;0.00;;;21.20;99.90;;;21.68;57.90;101301.66;4951402;28;96981;-54
2022/09/12 00:52:11;;;;;;;0.20;0.20;;;21.20;99.90;;;21.66;58.26;101297.38;4945480;28;97066;-50
2022/09/12 00:54:53;;;;;;;0.07;0.00;;;21.10;99.90;;;21.66;58.17;101297.38;4939911;28;97451;-53
2022/09/12 00:57:22;;;;;;;0.37;0.10;;;21.10;99.90;;;21.62;58.21;101287.81;4951447;28;99484;-53
2022/09/12 00:59:57;;;;;;;0.20;0.10;;;21.00;99.90;;;21.60;58.06;101285.25;4949106;28;98837;-50
2022/09/12 01:02:23;;;;;;;0.30;0.10;;;21.00;99.90;;;21.61;58.46;101289.66;4946173;28;97073;-52
2022/09/12 01:04:50;;;;;;;0.00;0.00;;;21.00;99.90;;;21.58;57.97;101284.50;4951277;28;98644;-53
2022/09/12 01:07:16;;;;;;;0.20;0.20;;;21.00;99.90;;;21.59;58.57;101291.59;4932185;28;97426;-54
2022/09/12 01:09:44;;;;;;;0.00;0.00;;;20.90;99.90;;;21.61;58.51;101289.66;4954708;28;97380;-52
2022/09/12 01:12:12;;;;;;;0.10;0.00;;;21.10;99.90;;;21.65;58.08;101285.78;4947024;28;97501;-51
2022/09/12 01:14:38;;;;;;;0.00;0.00;;;21.20;99.90;;;21.72;58.24;101285.34;4944366;28;97475;-51
2022/09/12 01:17:04;;;;;;;0.30;0.30;;;21.20;99.90;;;21.72;57.95;101290.72;4948969;28;104763;-48
2022/09/12 01:20:01;;;;;;;2.10;0.80;;;21.20;99.90;;;21.78;57.90;101287.56;4946648;28;97010;-48
2022/09/12 01:23:20;;;;;;;0.57;0.23;;;21.30;99.90;;;21.84;57.82;101287.13;4943586;28;97371;-54
2022/09/12 01:26:22;;;;;;;3.40;0.60;;;21.40;99.90;;;21.92;57.55;101282.06;4881341;28;102365;-47
2022/09/12 01:29:28;;;;;;;1.30;0.20;;;21.60;99.90;;;21.99;57.41;101286.03;4945998;28;101353;-53
2022/09/12 01:32:49;;;;;;;0.20;0.20;;;21.70;99.90;;;22.05;57.15;101290.97;4948877;28;97103;-53
2022/09/12 01:35:51;;;;;;;0.10;0.10;;;21.80;99.90;;;22.03;56.83;101279.44;4944307;28;100869;-55
2022/09/12 01:38:45;;;;;;;3.00;1.50;;;21.80;99.90;;;22.06;57.15;101278.38;4946906;28;97395;-47
2022/09/12 01:41:42;;;;;;;0.00;0.00;;;21.70;99.90;;;22.08;57.04;101282.66;4943314;28;97390;-52
2022/09/12 01:44:54;;;;;;;0.37;0.37;;;21.80;99.90;;;22.14;56.73;101271.47;4944867;28;97168;-52
2022/09/12 01:47:42;;;;;;;0.43;0.43;;;21.80;99.90;;;22.14;56.17;101279.53;4907368;28;97357;-51
2022/09/12 01:50:34;;;;;;;2.83;0.30;;;21.90;99.90;;;22.01;57.03;101273.31;4950584;28;97926;-48
2022/09/12 01:53:13;;;;;;;0.10;0.10;;;21.60;99.90;;;21.98;57.08;101270.84;4945498;28;102655;-52
2022/09/12 01:55:50;;;;;;;0.27;0.27;;;21.50;99.90;;;22.03;57.07;101267.84;4957019;28;97645;-54
2022/09/12 01:58:44;;;;;;;0.10;0.10;;;21.60;99.90;;;22.07;56.99;101270.22;4936419;28;97418;-49
2022/09/12 02:01:25;;;;;;;0.20;0.10;;;21.70;99.90;;;22.07;56.78;101270.22;4962669;28;98737;-49
2022/09/12 02:04:11;;;;;;;0.90;0.30;;;21.80;99.90;;;22.03;56.66;101268.69;4948699;28;101563;-50
2022/09/12 02:07:06;;;;;;;0.00;0.00;;;21.60;99.90;;;21.99;56.78;101267.22;4945392;28;97216;-52
2022/09/12 02:09:48;;;;;;;0.33;0.33;;;21.60;99.90;;;21.80;57.13;101267.69;4949081;28;97129;-50
2022/09/12 02:12:20;;;;;;;0.30;0.10;;;21.20;99.90;;;21.69;57.70;101255.03;4951083;28;99391;-54
2022/09/12 02:14:53;;;;;;;0.00;0.00;;;21.00;99.90;;;21.69;58.07;101254.19;4948538;28;101614;-51
2022/09/12 02:17:25;;;;;;;0.00;0.00;;;21.00;99.90;;;21.68;57.78;101250.63;4945997;28;97135;-52
2022/09/12 02:20:22;;;;;;;0.00;0.00;;;21.10;99.90;;;21.71;57.88;101252.28;4947327;28;97296;-52
2022/09/12 02:22:51;;;;;;;0.37;0.20;;;21.10;99.90;;;21.77;57.62;101253.63;4952180;28;101773;-49
2022/09/12 02:25:19;;;;;;;0.00;0.00;;;21.30;99.90;;;21.81;57.65;101255.13;4946918;28;99862;-54
2022/09/12 02:27:54;;;;;;;0.30;0.30;;;21.40;99.90;;;21.84;57.60;101254.88;4949273;28;100639;-53
2022/09/12 02:30:21;;;;;;;0.33;0.33;;;21.50;99.90;;;21.88;57.39;101248.34;4957498;28;97648;-53
2022/09/12 02:33:06;;;;;;;0.00;0.00;;;21.50;99.90;;;21.87;57.19;101243.94;4945894;28;115916;-53
2022/09/12 02:35:48;;;;;;;0.10;0.10;;;21.50;99.90;;;21.77;57.33;101250.94;4950462;28;97415;-51
2022/09/12 02:38:36;;;;;;;0.80;0.43;;;21.30;99.90;;;21.74;57.56;101253.88;4953079;28;97697;-49
2022/09/12 02:41:02;;;;;;;0.10;0.10;;;21.20;99.90;;;21.71;57.68;101240.69;4948537;28;97536;-55
2022/09/12 02:43:28;;;;;;;0.13;0.13;;;21.10;99.90;;;21.71;57.97;101246.03;4954626;28;97121;-55
2022/09/12 02:45:54;;;;;;;1.13;0.33;;;21.20;99.90;;;21.69;57.82;101238.94;4946680;28;106985;-52
2022/09/12 02:48:29;;;;;;;0.07;0.07;;;21.20;99.90;;;21.65;57.75;101237.44;4945087;28;97439;-55
2022/09/12 02:50:55;;;;;;;0.23;0.20;;;21.10;99.90;;;21.63;58.03;101236.72;4948375;28;97050;-54
2022/09/12 02:53:21;;;;;;;0.00;0.00;;;21.00;99.90;;;21.61;58.06;101235.09;4951549;28;97956;-52
2022/09/12 02:55:47;;;;;;;0.47;0.30;;;21.00;99.90;;;21.62;58.14;101234.13;4951842;28;98346;-52
2022/09/12 02:58:22;;;;;;;0.77;0.33;;;21.00;99.90;;;21.64;58.16;101230.38;4946679;28;97458;-49
2022/09/12 03:01:12;;;;;;;0.00;0.00;;;21.10;99.90;;;21.66;58.15;101228.41;4943272;28;97483;-50
2022/09/12 03:04:07;;;;;;;0.30;0.20;;;21.10;99.90;;;21.66;57.73;101217.69;4941881;28;98556;-51
2022/09/12 03:07:09;;;;;;;0.17;0.13;;;21.10;99.90;;;21.62;57.78;101231.44;4935090;28;98396;-51
2022/09/12 03:10:20;;;;;;;0.13;0.07;;;21.00;99.90;;;21.45;58.25;101230.00;4950829;28;97015;-53
2022/09/12 03:13:17;;;;;;;0.00;0.00;;;20.70;99.90;;;21.42;58.75;101219.50;4929075;28;97642;-51
2022/09/12 03:16:33;;;;;;;0.20;0.10;;;20.60;99.90;;;21.37;58.56;101217.13;4946567;28;101681;-53
2022/09/12 03:19:20;;;;;;;0.00;0.00;;;20.60;99.90;;;21.28;58.93;101217.78;4905748;28;102591;-52
2022/09/12 03:21:55;;;;;;;0.20;0.13;;;20.50;99.90;;;21.30;59.09;101221.22;4947890;28;97476;-54
2022/09/12 03:24:37;;;;;;;0.00;0.00;;;20.60;99.90;;;21.23;58.98;101227.94;4948995;28;97322;-52
2022/09/12 03:27:17;;;;;;;0.07;0.07;;;20.50;99.90;;;21.21;59.32;101226.34;4948690;28;97422;-55
2022/09/12 03:29:46;;;;;;;0.30;0.13;;;20.40;99.90;;;21.21;59.10;101220.97;4952053;28;101996;-54
2022/09/12 03:32:12;;;;;;;0.20;0.20;;;20.40;99.90;;;21.19;59.45;101228.28;4946336;28;100551;-51
2022/09/12 03:34:37;;;;;;;0.17;0.17;;;20.40;99.90;;;21.22;59.30;101228.06;4943397;28;97219;-50
2022/09/12 03:37:04;;;;;;;0.10;0.10;;;20.50;99.90;;;21.23;59.00;101232.44;4949848;28;99775;-54
2022/09/12 03:39:30;;;;;;;0.00;0.00;;;20.50;99.90;;;21.19;59.03;101223.78;4956007;28;97425;-53
2022/09/12 03:41:56;;;;;;;0.30;0.30;;;20.40;99.90;;;21.20;58.93;101230.00;4954077;28;97170;-54
2022/09/12 03:44:22;;;;;;;0.27;0.27;;;20.50;99.90;;;21.21;59.43;101231.72;4950245;28;97335;-55
2022/09/12 03:46:49;;;;;;;0.43;0.43;;;20.50;99.90;;;21.26;59.20;101229.56;4954569;28;96801;-53
2022/09/12 03:49:15;;;;;;;0.10;0.10;;;20.60;99.90;;;21.32;59.16;101223.78;4951769;28;97928;-53
2022/09/12 03:51:42;;;;;;;1.80;0.30;;;20.70;99.90;;;21.35;58.55;101218.19;4951239;28;97213;-49
2022/09/12 03:54:08;;;;;;;0.17;0.17;;;20.80;99.90;;;21.32;58.41;101219.28;4958870;28;97369;-53
2022/09/12 03:56:34;;;;;;;0.00;0.00;;;20.70;99.90;;;21.32;59.00;101223.78;4950363;28;97577;-53
2022/09/12 03:59:00;;;;;;;0.20;0.20;;;20.70;99.90;;;21.36;58.71;101214.53;4954072;28;97316;-53
2022/09/12 04:01:26;;;;;;;0.90;0.23;;;20.80;99.90;;;21.37;58.78;101216.25;4947552;28;100265;-54
2022/09/12 04:03:52;;;;;;;0.00;0.00;;;20.80;99.90;;;21.27;58.40;101215.22;4955595;28;97163;-52
2022/09/12 04:06:21;;;;;;;0.23;0.23;;;20.60;99.90;;;21.15;58.40;101218.75;4949929;28;97385;-52
2022/09/12 04:08:50;;;;;;;0.00;0.00;;;20.30;99.90;;;21.04;59.24;101220.34;4955067;28;98457;-53
2022/09/12 04:11:17;;;;;;;0.00;0.00;;;20.10;99.90;;;20.96;59.85;101222.69;4950194;28;98393;-55
2022/09/12 04:13:44;;;;;;;0.60;0.07;;;20.00;99.90;;;20.99;59.74;101219.84;4952784;28;97145;-50
2022/09/12 04:16:12;;;;;;;0.20;0.20;;;20.10;99.90;;;21.00;59.74;101218.00;4951789;28;97396;-51
2022/09/12 04:18:37;;;;;;;0.00;0.00;;;20.20;99.90;;;21.00;59.55;101218.88;4950691;28;97193;-50
2022/09/12 04:21:14;;;;;;;0.10;0.10;;;20.20;99.90;;;21.06;59.55;101218.41;4952144;28;97544;-53
2022/09/12 04:23:40;;;;;;;0.00;0.00;;;20.30;99.90;;;21.10;59.69;101214.53;4944650;28;97284;-53
2022/09/12 04:26:07;;;;;;;0.93;0.27;;;20.40;99.90;;;21.18;59.40;101215.84;4937897;28;98489;-54
2022/09/12 04:28:35;;;;;;;0.33;0.33;;;20.60;99.90;;;21.23;59.15;101208.31;4955489;28;99482;-53
2022/09/12 04:31:18;;;;;;;0.20;0.03;;;20.60;99.90;;;21.28;58.78;101200.84;4945017;28;97154;-54
2022/09/12 04:33:45;;;;;;;0.67;0.10;;;20.70;99.90;;;21.34;58.77;101201.25;4952928;28;97323;-53
2022/09/12 04:36:15;;;;;;;0.00;0.00;;;20.80;99.90;;;21.42;58.19;101208.75;4949248;28;96667;-52
2022/09/12 04:38:43;;;;;;;0.00;0.00;;;21.00;99.90;;;21.34;58.15;101203.06;4950081;28;99939;-51
2022/09/12 04:41:12;;;;;;;0.17;0.17;;;20.80;99.90;;;21.33;58.65;101202.22;4947813;28;97355;-49
2022/09/12 04:43:39;;;;;;;0.30;0.30;;;20.70;99.90;;;21.35;58.66;101207.47;4943493;28;97122;-52
2022/09/12 04:46:07;;;;;;;0.00;0.00;;;20.70;99.90;;;21.36;58.62;101204.66;4948237;28;97387;-53
2022/09/12 04:48:33;;;;;;;0.47;0.23;;;20.80;99.90;;;21.36;58.57;101203.81;4948953;28;97425;-54
2022/09/12 04:51:15;;;;;;;0.03;0.03;;;20.80;99.90;;;21.37;58.44;101205.53;4949057;28;97106;-55
2022/09/12 04:53:43;;;;;;;0.00;0.00;;;20.80;99.90;;;21.39;58.56;101187.47;4949446;28;97231;-54
2022/09/12 04:56:11;;;;;;;0.00;0.00;;;20.80;99.90;;;21.39;58.48;101195.53;4947522;28;98729;-52
2022/09/12 04:58:37;;;;;;;0.00;0.00;;;20.80;99.90;;;21.39;58.29;101203.59;4949236;28;98713;-51
2022/09/12 05:01:16;;;;;;;0.00;0.00;;;20.80;99.90;;;21.41;58.27;101195.41;4954676;28;96893;-51
2022/09/12 05:03:44;;;;;;;0.23;0.23;;;20.80;99.90;;;21.44;58.13;101187.16;4951545;28;97206;-52
2022/09/12 05:06:18;;;;;;;0.30;0.30;;;20.90;99.90;;;21.48;57.86;101192.19;4950422;28;97229;-51
2022/09/12 05:08:44;;;;;;;0.00;0.00;;;21.00;99.90;;;21.50;58.00;101190.25;4950158;28;102410;-50
2022/09/12 05:11:14;;;;;;;0.20;0.20;;;21.00;99.90;;;21.55;57.98;101177.34;4948609;28;102864;-51
2022/09/12 05:13:40;;;;;;;0.00;0.00;;;21.10;99.90;;;21.60;57.93;101177.88;4949506;28;98983;-52
2022/09/12 05:16:09;;;;;;;0.20;0.20;;;21.20;99.90;;;21.69;57.62;101174.50;4952181;28;97414;-53
2022/09/12 05:18:36;;;;;;;0.10;0.10;;;21.30;99.90;;;21.75;57.39;101177.72;4950156;28;98515;-49
2022/09/12 05:21:06;;;;;;;0.10;0.10;;;21.40;99.90;;;21.83;56.98;101180.66;4951011;28;97196;-49
2022/09/12 05:23:32;;;;;;;0.20;0.20;;;21.50;99.90;;;21.87;56.91;101177.66;4950834;28;97388;-52
2022/09/12 05:25:59;;;;;;;0.27;0.27;;;21.60;99.90;;;21.89;56.85;101191.81;4951376;28;97526;-50
2022/09/12 05:28:34;;;;;;;1.33;1.03;;;21.60;99.90;;;21.90;56.68;101188.16;4948588;28;103021;-52
2022/09/12 05:31:05;;;;;;;0.10;0.10;;;21.60;99.90;;;21.92;56.55;101186.22;4949439;28;97183;-52
2022/09/12 05:33:34;;;;;;;0.00;0.00;;;21.60;99.90;;;21.92;56.69;101175.47;4942123;28;97206;-51
2022/09/12 05:36:01;;;;;;;0.33;0.20;;;21.60;99.90;;;21.89;56.11;101182.91;4943867;28;99083;-54
2022/09/12 05:38:28;;;;;;;0.03;0.03;;;21.50;99.90;;;21.82;56.54;101184.34;4947700;28;99369;-49
2022/09/12 05:41:05;;;;;;;0.30;0.27;;;21.40;99.90;;;21.78;56.79;101186.41;4951827;28;97164;-52
2022/09/12 05:43:32;;;;;;;0.20;0.20;;;21.30;99.90;;;21.74;57.12;101179.53;4945226;28;97334;-51
2022/09/12 05:46:04;;;;;;;0.67;0.60;;;21.20;99.90;;;21.75;57.18;101183.09;4950877;28;97236;-52
2022/09/12 05:48:30;;;;;;;0.10;0.10;;;21.20;99.90;;;21.75;57.00;101188.47;4948325;28;97497;-55
2022/09/12 05:51:09;;;;;;;0.07;0.07;;;21.30;99.90;;;21.75;56.98;101181.25;4952890;28;97289;-54
2022/09/12 05:53:39;;;;;;;0.00;0.00;;;21.30;99.90;;;21.76;57.11;101187.47;4948638;28;101364;-51
2022/09/12 05:56:13;;;;;;;0.57;0.57;;;21.30;99.90;;;21.73;57.08;101195.78;4949629;28;97057;-52
2022/09/12 05:58:43;;;;;;;1.60;0.83;;;21.20;99.90;;;21.72;57.02;101199.44;4948745;28;97563;-51
2022/09/12 06:01:17;;;;;;;0.73;0.40;;;21.20;99.90;;;21.66;56.90;101195.34;4950464;28;97141;-53
2022/09/12 06:03:49;;;;;;;0.10;0.10;;;21.10;99.90;;;21.62;57.21;101200.09;4948253;28;97438;-51
2022/09/12 06:06:19;;;;;;;0.60;0.60;;;21.10;99.90;;;21.61;57.61;101202.91;4945689;28;102198;-56
2022/09/12 06:08:48;;;;;;;0.10;0.10;;;21.00;99.90;;;21.57;57.27;101210.31;4949987;28;100889;-50
2022/09/12 06:11:24;;;;;;;0.10;0.10;;;20.90;99.90;;;21.52;57.84;101216.97;4952383;28;97062;-54
2022/09/12 06:13:51;;;;;;;0.20;0.20;;;20.90;99.90;;;21.46;57.66;101210.25;4945421;28;103002;-54
2022/09/12 06:16:23;;;;;;;0.57;0.50;;;20.80;99.90;;;21.42;57.97;101202.53;4945615;28;98610;-49
2022/09/12 06:18:53;;;;;;;1.90;0.50;;;20.70;99.90;;;21.42;58.26;101206.06;4937866;28;97248;-49
2022/09/12 06:21:20;;;;;;;0.00;0.00;;;20.70;99.90;;;21.44;58.11;101205.97;4940971;28;97262;-49
2022/09/12 06:23:47;;;;;;;0.40;0.17;;;20.80;99.90;;;21.54;57.97;101206.97;4952869;28;97396;-52
2022/09/12 06:26:16;;;;;;;0.20;0.10;;;21.00;99.90;;;21.58;57.77;101203.97;4948333;28;97360;-52
2022/09/12 06:28:43;;;;;;;0.00;0.00;;;21.10;99.90;;;21.65;57.57;101207.91;4941246;28;102944;-53
2022/09/12 06:31:16;;;;;;;0.00;0.00;;;21.20;99.90;;;21.75;57.22;101209.94;4951617;28;97785;-52
2022/09/12 06:33:45;;;;;;;0.00;0.00;;;21.40;99.90;;;21.81;57.23;101213.00;4954840;28;100244;-50
2022/09/12 06:36:18;;;;;;;0.00;0.00;;;21.50;99.90;;;21.84;56.75;101209.25;4945800;28;97698;-53
2022/09/12 06:38:50;;;;;;;0.30;0.10;;;21.50;99.90;;;21.83;56.90;101208.38;4952764;28;100451;-52
2022/09/12 06:41:16;;;;;;;0.03;0.03;;;21.40;99.90;;;21.78;56.85;101204.34;4949553;28;97563;-57
2022/09/12 06:43:42;;;;;;;1.03;0.23;;;21.30;99.90;;;21.67;56.85;101208.66;4943308;28;97390;-52
2022/09/12 06:46:09;;;;;;;0.10;0.10;;;21.10;99.90;;;21.65;57.66;101207.06;4950507;28;113089;-52
2022/09/12 06:48:35;;;;;;;0.07;0.07;;;21.10;99.90;;;21.67;57.10;101211.34;4943788;28;97434;-49
2022/09/12 06:51:09;;;;;;;0.07;0.07;;;21.20;99.90;;;21.75;57.25;101204.56;4943043;28;97117;-48
2022/09/12 06:53:36;;;;;;;0.23;0.23;;;21.30;99.90;;;21.74;56.95;101213.59;4949284;28;97214;-53
2022/09/12 06:56:12;;;;;;;0.10;0.10;;;21.20;99.90;;;21.77;57.34;101213.38;4951757;28;97567;-50
2022/09/12 06:58:39;;;;;;;0.00;0.00;;;21.30;99.90;;;21.83;57.12;101215.56;4935423;28;97258;-56
2022/09/12 07:01:08;;;;;;;0.50;0.50;;;21.40;99.90;;;21.89;56.92;101215.16;4949636;28;96940;-52
2022/09/12 07:03:36;;;;;;;1.10;0.03;;;21.50;99.90;;;21.90;56.86;101215.03;4943476;28;97171;-54
2022/09/12 07:06:08;;;;;;;0.83;0.70;;;21.60;99.90;;;21.99;56.49;101210.81;4940491;28;97497;-52
2022/09/12 07:08:35;;;;;;;0.20;0.10;;;21.70;99.90;;;22.08;56.29;101210.13;4944152;28;97438;-51
2022/09/12 07:11:20;;;;;;;0.10;0.10;;;21.80;99.90;;;22.18;56.01;101204.94;4947374;28;97200;-48
2022/09/12 07:13:49;;;;;;;0.63;0.43;;;22.00;99.90;;;22.18;55.87;101202.25;4945609;28;97731;-51
2022/09/12 07:16:16;;;;;;;0.73;0.30;;;22.00;99.90;;;22.17;55.07;101196.03;4941588;28;96745;-52
2022/09/12 07:18:45;;;;;;;0.97;0.43;;;22.00;99.90;;;22.10;55.54;101202.81;4946894;28;101159;-48
2022/09/12 07:21:13;;;;;;;0.10;0.10;;;21.80;99.90;;;22.11;56.03;101206.34;4941377;28;97229;-54
2022/09/12 07:23:40;;;;;;;0.27;0.27;;;21.80;99.90;;;22.08;56.33;101207.44;4946303;28;97475;-54
2022/09/12 07:26:09;;;;;;;0.10;0.10;;;21.70;99.90;;;22.08;55.67;101212.81;4950351;28;97317;-52
2022/09/12 07:28:36;;;;;;;0.10;0.10;;;21.70;99.90;;;22.04;56.27;101210.47;4939937;28;97787;-50
2022/09/12 07:31:17;;;;;;;0.20;0.20;;;21.70;99.90;;;22.04;55.86;101205.94;4951635;28;97400;-53
2022/09/12 07:33:43;;;;;;;0.80;0.13;;;21.60;99.90;;;22.02;56.31;101213.25;4946961;28;97141;-51
2022/09/12 07:36:13;;;;;;;0.60;0.50;;;21.60;99.90;;;22.07;56.17;101210.25;4950203;28;98256;-49
2022/09/12 07:38:39;;;;;;;0.10;0.10;;;21.70;99.90;;;22.15;55.74;101215.91;4951652;28;98111;-54
2022/09/12 07:41:13;;;;;;;0.10;0.10;;;21.90;99.90;;;22.23;55.83;101217.03;4942611;28;97105;-50
2022/09/12 07:43:40;;;;;;;0.20;0.20;;;22.00;99.90;;;22.30;55.47;101217.44;4946401;28;97363;-50
2022/09/12 07:46:07;;;;;;;0.00;0.00;;;22.10;99.90;;;22.37;55.38;101212.44;4948409;28;97381;-54
2022/09/12 07:48:33;;;;;;;0.57;0.10;;;22.20;99.90;;;22.44;55.20;101211.03;4945619;28;97220;-52
2022/09/12 07:51:06;;;;;;;0.30;0.30;;;22.30;99.90;;;22.49;55.01;101216.88;4951087;28;97016;-52
2022/09/12 07:53:38;;;;;;;0.37;0.30;;;22.40;99.90;;;22.53;54.63;101211.16;4949081;28;97286;-52
2022/09/12 07:56:06;;;;;;;0.20;0.10;;;22.40;99.90;;;22.48;54.01;101217.88;4943119;28;97829;-51
2022/09/12 07:58:35;;;;;;;0.33;0.10;;;22.30;99.90;;;22.41;55.16;101211.22;4949643;28;97197;-53
2022/09/12 08:01:07;;;;;;;0.17;0.17;;;22.10;99.90;;;22.43;55.08;101212.84;4952939;28;97741;-54
2022/09/12 08:03:36;;;;;;;0.10;0.00;;;22.20;99.90;;;22.35;54.69;101209.88;4949015;28;96725;-52
2022/09/12 08:06:03;;;;;;;0.07;0.07;;;22.10;99.90;;;22.30;55.38;101211.22;4950812;28;111062;-50
2022/09/12 08:08:28;;;;;;;0.73;0.30;;;22.00;99.90;;;22.21;53.99;101208.25;4945683;28;97013;-53
2022/09/12 08:11:04;;;;;;;1.20;0.60;;;21.90;99.90;;;22.23;55.08;101206.28;4953232;28;100394;-52
2022/09/12 08:13:31;;;;;;;0.10;0.10;;;21.90;99.90;;;22.23;55.62;101206.28;4945677;28;96889;-49
2022/09/12 08:15:58;;;;;;;0.00;0.00;;;21.90;99.90;;;22.22;54.35;101209.94;4949504;28;98529;-55
2022/09/12 08:18:26;;;;;;;1.27;0.67;;;22.00;99.90;;;22.30;55.68;101216.59;4949601;28;98472;-52
2022/09/12 08:20:59;;;;;;;0.20;0.20;;;22.10;99.90;;;22.32;55.05;101215.50;4955459;28;97614;-52
2022/09/12 08:23:27;;;;;;;0.00;0.00;;;22.10;99.90;;;22.35;55.45;101225.16;4951299;28;97381;-52
2022/09/12 08:26:04;;;;;;;0.00;0.00;;;22.20;99.90;;;22.39;55.55;101222.09;4954130;28;97617;-54
2022/09/12 08:28:33;;;;;;;0.30;0.23;;;22.30;99.90;;;22.46;55.21;101223.38;4951501;28;97273;-53
2022/09/12 08:31:04;;;;;;;0.10;0.10;;;22.40;99.90;;;22.51;54.96;101221.16;4954835;28;99209;-54
2022/09/12 08:33:33;;;;;;;0.00;0.00;;;22.40;99.90;;;22.58;54.82;101216.19;4946749;28;97241;-54
2022/09/12 08:36:14;;;;;;;0.27;0.27;;;22.50;99.90;;;22.60;54.56;101214.25;4952261;28;97789;-51
2022/09/12 08:38:43;;;;;;;0.00;0.00;;;22.50;99.90;;;22.60;54.69;101200.78;4945118;28;97466;-51
2022/09/12 08:41:18;;;;;;;0.87;0.03;;;22.60;99.90;;;22.63;54.67;101202.38;4953707;28;97446;-49
2022/09/12 08:44:04;;;;;;;0.17;0.17;;;22.60;99.90;;;22.66;54.38;101212.91;4948403;28;97490;-52
2022/09/12 08:47:09;;;;;;;0.00;0.00;;;22.60;99.90;;;22.66;54.39;101219.13;4928654;28;97391;-51
2022/09/12 08:49:44;;;;;;;0.40;0.40;;;22.70;99.90;;;22.65;54.61;101220.09;4946608;28;98019;-53
2022/09/12 08:52:33;;;;;;;0.53;0.27;;;22.70;99.90;;;22.73;54.12;101220.38;4954230;28;97396;-53
2022/09/12 08:55:01;;;;;;;0.00;0.00;;;22.70;99.90;;;22.70;54.15;101219.75;4949370;28;97462;-52
2022/09/12 08:57:27;;;;;;;0.00;0.00;;;22.70;99.90;;;22.72;54.27;101213.28;4956285;28;97701;-53
2022/09/12 08:59:54;;;;;;;0.20;0.20;;;22.70;99.90;;;22.78;54.16;101210.13;4948165;28;112000;-54
2022/09/12 09:03:00;;;;;;;0.97;0.53;;;22.70;99.90;;;22.77;54.24;101211.09;4942180;28;99427;-54
2022/09/12 09:05:50;;;;;;;0.83;0.40;;;22.70;99.90;;;22.80;52.40;101210.00;4950184;28;97073;-52
2022/09/12 09:08:22;;;;;;;0.10;0.10;;;22.70;99.90;;;22.77;54.18;101199.47;4938735;28;98835;-57
2022/09/12 09:10:57;;;;;;;0.30;0.30;;;22.70;99.90;;;22.79;53.71;101198.38;4952918;28;101574;-54
2022/09/12 09:16:40;;;;;;;0.00;0.00;;;22.70;99.90;;;22.73;53.51;101195.31;4943630;28;98867;-52
2022/09/12 09:19:19;;;;;;;1.90;0.27;;;22.60;99.90;;;22.67;54.41;101188.56;4948743;28;98755;-55
2022/09/12 09:22:00;;;;;;;0.10;0.10;;;22.50;99.90;;;22.72;54.35;101196.31;4946677;28;99736;-54
2022/09/12 09:24:39;;;;;;;0.10;0.10;;;22.60;99.90;;;22.76;54.02;101187.88;4941431;28;97360;-55
2022/09/12 09:27:52;;;;;;;0.33;0.33;;;22.70;99.90;;;22.81;53.16;101196.41;4952326;28;97075;-53
2022/09/12 09:30:20;;;;;;;0.40;0.40;;;22.70;99.90;;;22.80;53.99;101183.94;4929795;28;101734;-54
2022/09/12 09:32:54;;;;;;;0.00;0.00;;;22.70;99.90;;;22.82;53.18;101184.72;4952167;28;102339;-54
2022/09/12 09:35:44;;;;;;;0.00;0.00;;;22.70;99.90;;;22.82;52.81;101182.03;4949451;28;97817;-54
2022/09/12 09:38:24;;;;;;;0.00;0.00;;;22.70;99.90;;;22.82;53.90;101183.81;4949846;28;97118;-53
2022/09/12 09:41:00;;;;;;;0.03;0.03;;;22.60;99.90;;;22.77;54.48;101181.50;4958312;28;100349;-50
2022/09/12 09:43:29;;;;;;;0.33;0.17;;;22.70;99.90;;;22.81;54.12;101184.81;4948817;28;101559;-55
2022/09/12 09:45:59;;;;;;;0.20;0.20;;;22.70;99.90;;;22.83;54.09;101172.97;4949793;28;97312;-55
2022/09/12 09:48:36;;;;;;;0.00;0.00;;;22.70;99.90;;;22.80;54.16;101178.56;4941967;28;97245;-55
2022/09/12 09:51:06;;;;;;;0.00;0.00;;;22.80;99.90;;;22.80;54.19;101167.81;4953222;28;97571;-52
2022/09/12 09:53:59;;;;;;;0.23;0.10;;;22.80;99.90;;;22.89;53.99;101165.41;4950479;28;98497;-52
2022/09/12 09:56:43;;;;;;;0.00;0.00;;;22.80;99.90;;;22.87;54.04;101157.47;4956007;28;97461;-54
2022/09/12 09:59:30;;;;;;;0.20;0.08;;;22.80;99.90;;;22.87;54.02;101160.16;4946650;28;97197;-53
2022/09/12 10:02:02;;;;;;;0.20;0.20;;;22.80;99.90;;;22.89;53.93;101149.28;4941994;28;103183;-55
2022/09/12 10:04:41;;;;;;;0.30;0.30;;;22.90;99.90;;;22.92;53.77;101151.72;4946381;28;96836;-52
2022/09/12 10:07:18;;;;;;;0.10;0.10;;;22.90;99.90;;;22.95;53.85;101148.78;4951241;28;97071;-53
2022/09/12 10:10:06;;;;;;;0.10;0.10;;;22.90;99.90;;;23.03;53.40;101140.97;4945320;28;96979;-49
2022/09/12 10:12:32;;;;;;;0.23;0.03;;;23.00;99.90;;;22.98;53.57;101137.78;4950605;28;99393;-51
2022/09/12 10:15:02;;;;;;;0.25;0.10;;;23.00;99.90;;;22.95;53.71;101132.63;4949662;28;97243;-50
2022/09/12 10:17:42;;;;;;;0.00;0.00;;;23.00;99.90;;;22.97;53.89;101133.38;4948956;28;97224;-52
2022/09/12 10:20:38;;;;;;;0.10;0.10;;;23.00;99.90;;;22.99;53.72;101126.03;4950254;28;99374;-51
2022/09/12 10:23:36;;;;;;;0.20;0.10;;;23.00;99.90;;;23.08;53.43;101136.06;4942496;28;100354;-51
2022/09/12 10:26:10;;;;;;;0.15;0.15;;;23.10;99.90;;;23.10;53.06;101134.09;4949003;28;99875;-52
2022/09/12 10:28:55;;;;;;;0.28;0.28;;;23.10;99.90;;;23.08;53.67;101133.38;4944428;28;97346;-54
2022/09/12 10:31:37;;;;;;;0.95;0.40;;;23.10;99.90;;;22.98;53.75;101133.25;4941170;28;97490;-50
2022/09/12 10:34:04;;;;;;;0.00;0.00;;;23.10;99.90;;;23.01;53.64;101129.47;4950415;28;97147;-50
2022/09/12 10:36:38;;;;;;;0.20;0.10;;;23.10;99.90;;;23.15;52.57;101129.22;4940674;28;97201;-55
2022/09/12 10:39:05;;;;;;;0.20;0.10;;;23.20;99.90;;;23.25;52.11;101124.78;4958673;28;97458;-53
2022/09/12 10:41:40;;;;;;;0.20;0.20;;;23.30;99.90;;;23.36;51.91;101119.38;4948097;28;97033;-52
2022/09/12 10:44:14;;;;;;;0.03;0.03;;;23.40;99.90;;;23.35;52.49;101116.81;4943969;28;98623;-49